createdAt,value
2023-05-19T00:02:29.347Z,77.82
2023-05-19T00:07:29.224Z,78.23
2023-05-19T00:12:29.164Z,78.84
2023-05-19T00:17:29.100Z,79.66
2023-05-19T00:22:29.041Z,79.66
2023-05-19T00:27:28.952Z,80.07
2023-05-19T00:32:28.929Z,80.37
2023-05-19T00:37:28.829Z,80.62
2023-05-19T00:42:28.790Z,80.82
2023-05-19T00:47:28.715Z,81.03
2023-05-19T00:52:28.630Z,80.41
2023-05-19T00:57:28.564Z,80.10
2023-05-19T01:02:28.623Z,80.62
2023-05-19T01:07:28.445Z,81.33
2023-05-19T01:12:28.381Z,81.54
2023-05-19T01:17:28.347Z,82.04
2023-05-19T01:22:28.246Z,82.29
2023-05-19T01:27:28.168Z,82.39
2023-05-19T01:32:28.148Z,82.39
2023-05-19T01:37:28.045Z,81.68
2023-05-19T01:42:28.013Z,81.82
2023-05-19T01:47:27.960Z,81.51
2023-05-19T01:52:27.884Z,81.06
2023-05-19T01:57:27.784Z,81.17
2023-05-19T02:02:27.756Z,83.01
2023-05-19T02:07:27.663Z,83.45
2023-05-19T02:12:27.613Z,83.35
2023-05-19T02:17:27.590Z,82.43
2023-05-19T02:22:27.472Z,82.23
2023-05-19T02:27:27.385Z,81.92
2023-05-19T02:32:27.461Z,81.82
2023-05-19T02:37:27.264Z,80.69
2023-05-19T02:42:27.214Z,81.61
2023-05-19T02:47:27.156Z,82.33
2023-05-19T02:52:27.070Z,79.87
2023-05-19T02:57:27.000Z,79.37
2023-05-19T03:02:27.096Z,78.75
2023-05-19T03:07:26.862Z,78.13
2023-05-19T03:12:26.814Z,77.11
2023-05-19T03:17:26.852Z,75.99
2023-05-19T03:22:26.673Z,74.86
2023-05-19T03:27:26.627Z,74.66
2023-05-19T03:32:26.666Z,74.83
2023-05-19T03:37:26.470Z,74.73
2023-05-19T03:42:26.433Z,74.52
2023-05-19T03:47:26.377Z,74.73
2023-05-19T03:52:26.273Z,74.83
2023-05-19T03:57:26.210Z,74.62
2023-05-19T04:02:26.205Z,74.73
2023-05-19T04:07:26.087Z,74.62
2023-05-19T04:12:26.009Z,74.28
2023-05-19T04:17:25.973Z,73.98
2023-05-19T04:22:25.873Z,74.38
2023-05-19T04:27:25.825Z,73.87
2023-05-19T04:32:25.812Z,74.08
2023-05-19T04:37:25.686Z,73.77
2023-05-19T04:42:25.625Z,73.74
2023-05-19T04:47:25.587Z,73.84
2023-05-19T04:52:25.495Z,73.63
2023-05-19T04:57:25.404Z,72.99
2023-05-19T05:02:25.448Z,72.65
2023-05-19T05:07:25.277Z,72.21
2023-05-19T05:12:25.242Z,70.41
2023-05-19T05:17:25.168Z,68.78
2023-05-19T05:22:25.094Z,68.84
2023-05-19T05:27:25.007Z,67.90
2023-05-19T05:32:25.069Z,67.90
2023-05-19T05:37:24.876Z,67.59
2023-05-19T05:42:24.848Z,67.49
2023-05-19T05:47:24.752Z,67.87
2023-05-19T05:52:24.690Z,67.26
2023-05-19T05:57:24.654Z,66.88
2023-05-19T06:02:24.638Z,65.94
2023-05-19T06:07:24.559Z,65.20
2023-05-19T06:12:24.449Z,64.63
2023-05-19T06:17:24.396Z,62.48
2023-05-19T06:22:24.328Z,59.50
2023-05-19T06:27:24.236Z,56.39
2023-05-19T06:32:24.231Z,52.41
2023-05-19T06:37:24.100Z,50.48
2023-05-19T06:42:24.051Z,48.21
2023-05-19T06:47:23.989Z,49.31
2023-05-19T06:52:23.947Z,49.01
2023-05-19T06:57:23.828Z,47.66
2023-05-19T07:02:23.835Z,46.44
2023-05-19T07:07:23.848Z,47.66
2023-05-19T07:12:23.649Z,48.29
2023-05-19T07:17:23.852Z,47.48
2023-05-19T07:22:23.508Z,49.33
2023-05-19T07:27:23.443Z,48.09
2023-05-19T07:32:23.614Z,45.95
2023-05-19T07:37:23.314Z,46.18
2023-05-19T07:42:23.303Z,41.55
2023-05-19T07:47:23.172Z,45.87
2023-05-19T07:52:23.109Z,44.03
2023-05-19T07:57:23.060Z,44.32
2023-05-19T08:02:23.008Z,44.75
2023-05-19T08:07:22.926Z,50.07
2023-05-19T08:12:22.844Z,48.52
2023-05-19T08:17:22.858Z,48.92
2023-05-19T08:22:22.861Z,47.68
2023-05-19T08:27:22.679Z,46.58
2023-05-19T08:32:22.672Z,47.52
2023-05-19T08:37:22.543Z,46.98
2023-05-19T08:42:22.463Z,48.60
2023-05-19T08:47:22.434Z,45.63
2023-05-19T08:52:22.347Z,46.82
2023-05-19T08:57:22.277Z,47.39
2023-05-19T09:02:22.232Z,47.47
2023-05-19T09:07:22.153Z,47.65
2023-05-19T09:12:22.052Z,47.99
2023-05-19T09:17:22.081Z,50.42
2023-05-19T09:22:21.939Z,54.35
2023-05-19T09:27:21.876Z,52.94
2023-05-19T09:32:21.850Z,51.28
2023-05-19T09:37:21.758Z,51.66
2023-05-19T09:42:21.666Z,51.53
2023-05-19T09:47:21.661Z,49.53
2023-05-19T09:52:21.521Z,48.98
2023-05-19T09:57:21.483Z,48.44
2023-05-19T10:02:21.392Z,48.27
2023-05-19T10:07:21.346Z,49.35
2023-05-19T10:12:21.279Z,47.11
2023-05-19T10:17:21.206Z,48.46
2023-05-19T10:22:21.132Z,47.25
2023-05-19T10:27:21.110Z,45.85
2023-05-19T10:32:21.091Z,43.45
2023-05-19T10:37:20.932Z,44.18
2023-05-19T10:42:20.889Z,41.75
2023-05-19T10:47:20.865Z,42.81
2023-05-19T10:52:20.756Z,45.22
2023-05-19T10:57:20.700Z,46.15
2023-05-19T11:02:20.675Z,44.83
2023-05-19T11:07:20.567Z,44.95
2023-05-19T11:12:20.490Z,46.38
2023-05-19T11:17:20.429Z,45.73
2023-05-19T11:22:20.345Z,45.55
2023-05-19T11:27:20.312Z,46.43
2023-05-19T11:32:20.294Z,46.31
2023-05-19T11:37:20.168Z,45.77
2023-05-19T11:42:20.116Z,47.27
2023-05-19T11:47:20.015Z,46.19
2023-05-19T11:52:19.950Z,45.58
2023-05-19T11:57:19.880Z,46.81
2023-05-19T12:02:19.880Z,47.49
2023-05-19T12:07:19.763Z,48.98
2023-05-19T12:12:19.685Z,48.29
2023-05-19T12:17:19.619Z,49.15
2023-05-19T12:22:19.549Z,49.85
2023-05-19T12:27:19.488Z,50.15
2023-05-19T12:32:19.399Z,51.38
2023-05-19T12:37:19.347Z,51.08
2023-05-19T12:42:19.283Z,50.28
2023-05-19T12:47:19.209Z,49.57
2023-05-19T12:52:19.148Z,49.04
2023-05-19T12:57:19.092Z,50.35
2023-05-19T13:02:19.058Z,49.73
2023-05-19T13:07:18.952Z,48.77
2023-05-19T13:12:18.872Z,49.35
2023-05-19T13:17:18.813Z,48.19
2023-05-19T13:22:18.758Z,48.16
2023-05-19T13:27:18.705Z,48.06
2023-05-19T13:32:18.656Z,47.74
2023-05-19T13:37:18.611Z,47.32
2023-05-19T13:42:18.508Z,48.10
2023-05-19T13:47:18.581Z,46.33
2023-05-19T13:52:18.375Z,46.05
2023-05-19T13:57:18.307Z,46.83
2023-05-19T14:02:18.246Z,47.03
2023-05-19T14:07:18.176Z,49.12
2023-05-19T14:12:18.116Z,47.03
2023-05-19T14:17:18.072Z,47.64
2023-05-19T14:22:18.019Z,47.84
2023-05-19T14:27:17.930Z,48.04
2023-05-19T14:32:17.863Z,49.04
2023-05-19T14:37:17.801Z,49.75
2023-05-19T14:42:17.726Z,50.05
2023-05-19T14:47:17.675Z,50.03
2023-05-19T14:52:17.623Z,51.23
2023-05-19T14:57:17.556Z,50.25
2023-05-19T15:02:17.487Z,50.75
2023-05-19T15:07:17.412Z,52.16
2023-05-19T15:12:17.385Z,52.28
2023-05-19T15:17:17.339Z,52.89
2023-05-19T15:22:17.229Z,54.43
2023-05-19T15:27:17.203Z,55.05
2023-05-19T15:32:17.090Z,56.16
2023-05-19T15:37:17.052Z,56.19
2023-05-19T15:42:16.972Z,55.28
2023-05-19T15:47:16.946Z,55.10
2023-05-19T15:52:16.841Z,55.51
2023-05-19T15:57:16.795Z,55.18
2023-05-19T16:02:16.838Z,55.48
2023-05-19T16:07:16.663Z,56.62
2023-05-19T16:12:16.586Z,56.92
2023-05-19T16:17:16.529Z,57.83
2023-05-19T16:22:16.453Z,57.42
2023-05-19T16:27:16.381Z,57.65
2023-05-19T16:32:16.316Z,57.75
2023-05-19T16:37:16.258Z,57.55
2023-05-19T16:42:16.188Z,57.95
2023-05-19T16:47:16.128Z,58.16
2023-05-19T16:52:16.068Z,58.06
2023-05-19T16:57:15.997Z,58.26
2023-05-19T17:02:15.922Z,58.36
2023-05-19T17:07:15.962Z,58.86
2023-05-19T17:12:15.788Z,58.08
2023-05-19T17:17:15.787Z,58.69
2023-05-19T17:22:15.658Z,58.92
2023-05-19T17:27:15.598Z,59.62
2023-05-19T17:32:15.562Z,59.75
2023-05-19T17:37:15.454Z,60.05
2023-05-19T17:42:15.398Z,60.46
2023-05-19T17:47:15.340Z,60.76
2023-05-19T17:52:15.275Z,61.60
2023-05-19T17:57:15.208Z,61.70
2023-05-19T18:02:15.265Z,61.93
2023-05-19T18:07:15.070Z,62.34
2023-05-19T18:12:14.982Z,62.87
2023-05-19T18:17:14.950Z,63.48
2023-05-19T18:22:14.875Z,63.98
2023-05-19T18:27:14.821Z,64.52
2023-05-19T18:32:14.808Z,64.92
2023-05-19T18:37:14.692Z,65.46
2023-05-19T18:42:14.600Z,65.96
2023-05-19T18:47:14.550Z,66.30
2023-05-19T18:52:14.469Z,66.60
2023-05-19T18:57:14.416Z,66.91
2023-05-19T19:02:14.341Z,67.14
2023-05-19T19:07:14.284Z,67.34
2023-05-19T19:12:14.216Z,67.75
2023-05-19T19:17:14.326Z,68.06
2023-05-19T19:22:14.080Z,68.39
2023-05-19T19:27:14.037Z,68.69
2023-05-19T19:32:13.960Z,69.10
2023-05-19T19:37:13.904Z,69.20
2023-05-19T19:42:13.822Z,69.43
2023-05-19T19:47:13.790Z,69.74
2023-05-19T19:52:13.685Z,69.84
2023-05-19T19:57:13.640Z,70.34
2023-05-19T20:02:13.589Z,70.78
2023-05-19T20:07:13.494Z,71.29
2023-05-19T20:12:13.404Z,71.70
2023-05-19T20:17:13.360Z,72.10
2023-05-19T20:22:13.272Z,72.75
2023-05-19T20:27:13.226Z,73.05
2023-05-19T20:32:13.148Z,73.26
2023-05-19T20:37:13.076Z,73.80
2023-05-19T20:42:13.007Z,74.20
2023-05-19T20:47:12.967Z,74.74
2023-05-19T20:52:12.878Z,74.95
2023-05-19T20:57:12.808Z,75.05
2023-05-19T21:02:12.736Z,75.45
2023-05-19T21:07:12.686Z,75.45
2023-05-19T21:12:12.613Z,75.79
2023-05-19T21:17:12.603Z,76.10
2023-05-19T21:22:12.476Z,76.51
2023-05-19T21:27:12.416Z,76.95
2023-05-19T21:32:12.359Z,77.25
2023-05-19T21:37:12.300Z,77.46
2023-05-19T21:42:12.231Z,77.90
2023-05-19T21:47:12.144Z,78.21
2023-05-19T21:52:12.076Z,78.61
2023-05-19T21:57:12.011Z,78.85
2023-05-19T22:02:12.035Z,79.06
2023-05-19T22:07:11.899Z,79.37
2023-05-19T22:12:11.813Z,79.46
2023-05-19T22:17:11.750Z,79.87
2023-05-19T22:22:14.310Z,79.87
2023-05-19T22:27:11.640Z,79.98
2023-05-19T22:32:11.561Z,80.07
2023-05-19T22:37:11.504Z,80.18
2023-05-19T22:42:11.419Z,80.18
2023-05-19T22:47:11.370Z,80.38
2023-05-19T22:52:11.296Z,80.18
2023-05-19T22:57:11.241Z,80.07
2023-05-19T23:02:11.194Z,80.38
2023-05-19T23:07:11.121Z,80.48
2023-05-19T23:12:11.054Z,80.68
2023-05-19T23:17:11.094Z,80.59
2023-05-19T23:22:11.313Z,80.59
2023-05-19T23:27:10.858Z,80.68
2023-05-19T23:32:10.799Z,80.89
2023-05-19T23:37:10.725Z,80.75
2023-05-19T23:42:10.673Z,80.89
2023-05-19T23:47:10.664Z,80.75
2023-05-19T23:52:10.540Z,80.85
2023-05-19T23:57:10.476Z,81.40
